sensor_id;sensor_type;location;lat;lon;timestamp;P1;durP1;ratioP1;P2;durP2;ratioP2
51194;SDS011;37259;49.972;19.850;2023-12-20T00:00:18;17;;;9.5;;
51194;SDS011;37259;49.972;19.850;2023-12-20T00:01:17;17;;;9.5;;
51194;SDS011;37259;49.972;19.850;2023-12-20T00:02:17;17;;;9.5;;
51194;SDS011;37259;49.972;19.850;2023-12-20T00:03:17;17;;;9.5;;
51194;SDS011;37259;49.972;19.850;2023-12-20T00:04:17;17;;;9.5;;
51194;SDS011;37259;49.972;19.850;2023-12-20T00:05:17;17;;;9.5;;
51194;SDS011;37259;49.972;19.850;2023-12-20T00:06:17;17;;;9.5;;
51194;SDS011;37259;49.972;19.850;2023-12-20T00:07:17;17;;;9.5;;
51194;SDS011;37259;49.972;19.850;2023-12-20T00:08:17;17;;;9.5;;
51194;SDS011;37259;49.972;19.850;2023-12-20T00:09:17;17;;;9.5;;
51194;SDS011;37259;49.972;19.850;2023-12-20T00:10:17;17;;;9.5;;
51194;SDS011;37259;49.972;19.850;2023-12-20T00:11:17;17;;;9.5;;
51194;SDS011;37259;49.972;19.850;2023-12-20T00:12:17;17;;;9.5;;
51194;SDS011;37259;49.972;19.850;2023-12-20T00:13:17;17;;;9.5;;
51194;SDS011;37259;49.972;19.850;2023-12-20T00:14:17;17;;;9.5;;
51194;SDS011;37259;49.972;19.850;2023-12-20T00:15:17;17;;;9.5;;
51194;SDS011;37259;49.972;19.850;2023-12-20T00:16:17;19.6;;;10.3;;
51194;SDS011;37259;49.972;19.850;2023-12-20T00:17:17;19.6;;;10.3;;
51194;SDS011;37259;49.972;19.850;2023-12-20T00:18:17;19.6;;;10.3;;
51194;SDS011;37259;49.972;19.850;2023-12-20T00:19:17;19.6;;;10.3;;
51194;SDS011;37259;49.972;19.850;2023-12-20T00:20:17;19.6;;;10.3;;
51194;SDS011;37259;49.972;19.850;2023-12-20T00:21:17;19.6;;;10.3;;
51194;SDS011;37259;49.972;19.850;2023-12-20T00:22:17;19.6;;;10.3;;
51194;SDS011;37259;49.972;19.850;2023-12-20T00:23:17;19.6;;;10.3;;
51194;SDS011;37259;49.972;19.850;2023-12-20T00:24:17;19.6;;;10.3;;
51194;SDS011;37259;49.972;19.850;2023-12-20T00:25:17;19.6;;;10.3;;
51194;SDS011;37259;49.972;19.850;2023-12-20T00:26:17;19.6;;;10.3;;
51194;SDS011;37259;49.972;19.850;2023-12-20T00:27:17;19.6;;;10.3;;
51194;SDS011;37259;49.972;19.850;2023-12-20T00:28:17;19.6;;;10.3;;
51194;SDS011;37259;49.972;19.850;2023-12-20T00:29:17;19.6;;;10.3;;
51194;SDS011;37259;49.972;19.850;2023-12-20T00:30:17;19.6;;;10.3;;
51194;SDS011;37259;49.972;19.850;2023-12-20T00:31:17;19.6;;;10.3;;
51194;SDS011;37259;49.972;19.850;2023-12-20T00:32:17;19.6;;;10.3;;
51194;SDS011;37259;49.972;19.850;2023-12-20T00:33:17;19.6;;;10.3;;
51194;SDS011;37259;49.972;19.850;2023-12-20T00:34:17;19.6;;;10.3;;
51194;SDS011;37259;49.972;19.850;2023-12-20T00:35:17;19.6;;;10.3;;
51194;SDS011;37259;49.972;19.850;2023-12-20T00:36:17;19.6;;;10.3;;
51194;SDS011;37259;49.972;19.850;2023-12-20T00:37:17;19.6;;;10.3;;
51194;SDS011;37259;49.972;19.850;2023-12-20T00:38:17;19.6;;;10.3;;
51194;SDS011;37259;49.972;19.850;2023-12-20T00:39:17;19.6;;;10.3;;
51194;SDS011;37259;49.972;19.850;2023-12-20T00:40:17;19.6;;;10.3;;
51194;SDS011;37259;49.972;19.850;2023-12-20T00:41:17;19.6;;;10.3;;
51194;SDS011;37259;49.972;19.850;2023-12-20T00:42:17;19.6;;;10.3;;
51194;SDS011;37259;49.972;19.850;2023-12-20T00:43:17;19.6;;;10.3;;
51194;SDS011;37259;49.972;19.850;2023-12-20T00:44:17;19.6;;;10.3;;
51194;SDS011;37259;49.972;19.850;2023-12-20T00:45:17;19.6;;;10.3;;
51194;SDS011;37259;49.972;19.850;2023-12-20T00:46:17;19.2;;;9.4;;
51194;SDS011;37259;49.972;19.850;2023-12-20T00:47:17;19.2;;;9.4;;
51194;SDS011;37259;49.972;19.850;2023-12-20T00:48:17;19.2;;;9.4;;
51194;SDS011;37259;49.972;19.850;2023-12-20T00:49:17;19.2;;;9.4;;
51194;SDS011;37259;49.972;19.850;2023-12-20T00:50:17;19.2;;;9.4;;
51194;SDS011;37259;49.972;19.850;2023-12-20T00:51:17;19.2;;;9.4;;
51194;SDS011;37259;49.972;19.850;2023-12-20T00:52:17;19.2;;;9.4;;
51194;SDS011;37259;49.972;19.850;2023-12-20T00:53:17;19.2;;;9.4;;
51194;SDS011;37259;49.972;19.850;2023-12-20T00:54:17;19.2;;;9.4;;
51194;SDS011;37259;49.972;19.850;2023-12-20T00:55:17;19.2;;;9.4;;
51194;SDS011;37259;49.972;19.850;2023-12-20T00:56:17;19.2;;;9.4;;
51194;SDS011;37259;49.972;19.850;2023-12-20T00:57:17;19.2;;;9.4;;
51194;SDS011;37259;49.972;19.850;2023-12-20T00:58:17;19.2;;;9.4;;
51194;SDS011;37259;49.972;19.850;2023-12-20T00:59:18;19.2;;;9.4;;
51194;SDS011;37259;49.972;19.850;2023-12-20T01:00:17;19.2;;;9.4;;
51194;SDS011;37259;49.972;19.850;2023-12-20T01:01:17;19.2;;;9.4;;
51194;SDS011;37259;49.972;19.850;2023-12-20T01:02:17;19.2;;;9.4;;
51194;SDS011;37259;49.972;19.850;2023-12-20T01:03:17;19.2;;;9.4;;
51194;SDS011;37259;49.972;19.850;2023-12-20T01:04:17;19.2;;;9.4;;
51194;SDS011;37259;49.972;19.850;2023-12-20T01:05:17;19.2;;;9.4;;
51194;SDS011;37259;49.972;19.850;2023-12-20T01:06:17;19.2;;;9.4;;
51194;SDS011;37259;49.972;19.850;2023-12-20T01:07:17;19.2;;;9.4;;
51194;SDS011;37259;49.972;19.850;2023-12-20T01:08:17;19.2;;;9.4;;
51194;SDS011;37259;49.972;19.850;2023-12-20T01:09:17;19.2;;;9.4;;
51194;SDS011;37259;49.972;19.850;2023-12-20T01:10:18;19.2;;;9.4;;
51194;SDS011;37259;49.972;19.850;2023-12-20T01:11:17;19.2;;;9.4;;
51194;SDS011;37259;49.972;19.850;2023-12-20T01:12:17;19.2;;;9.4;;
51194;SDS011;37259;49.972;19.850;2023-12-20T01:13:17;19.2;;;9.4;;
51194;SDS011;37259;49.972;19.850;2023-12-20T01:14:17;19.2;;;9.4;;
51194;SDS011;37259;49.972;19.850;2023-12-20T01:15:17;19.2;;;9.4;;
51194;SDS011;37259;49.972;19.850;2023-12-20T01:16:17;9.5;;;4.8;;
51194;SDS011;37259;49.972;19.850;2023-12-20T01:17:17;9.5;;;4.8;;
51194;SDS011;37259;49.972;19.850;2023-12-20T01:18:17;9.5;;;4.8;;
51194;SDS011;37259;49.972;19.850;2023-12-20T01:19:17;9.5;;;4.8;;
51194;SDS011;37259;49.972;19.850;2023-12-20T01:20:17;9.5;;;4.8;;
51194;SDS011;37259;49.972;19.850;2023-12-20T01:21:18;9.5;;;4.8;;
51194;SDS011;37259;49.972;19.850;2023-12-20T01:22:17;9.5;;;4.8;;
51194;SDS011;37259;49.972;19.850;2023-12-20T01:23:17;9.5;;;4.8;;
51194;SDS011;37259;49.972;19.850;2023-12-20T01:24:17;9.5;;;4.8;;
51194;SDS011;37259;49.972;19.850;2023-12-20T01:25:17;9.5;;;4.8;;
51194;SDS011;37259;49.972;19.850;2023-12-20T01:26:17;9.5;;;4.8;;
51194;SDS011;37259;49.972;19.850;2023-12-20T01:27:17;9.5;;;4.8;;
51194;SDS011;37259;49.972;19.850;2023-12-20T01:28:17;9.5;;;4.8;;
51194;SDS011;37259;49.972;19.850;2023-12-20T01:29:17;9.5;;;4.8;;
51194;SDS011;37259;49.972;19.850;2023-12-20T01:30:17;9.5;;;4.8;;
51194;SDS011;37259;49.972;19.850;2023-12-20T01:31:17;9.5;;;4.8;;
51194;SDS011;37259;49.972;19.850;2023-12-20T01:32:18;9.5;;;4.8;;
51194;SDS011;37259;49.972;19.850;2023-12-20T01:33:17;9.5;;;4.8;;
51194;SDS011;37259;49.972;19.850;2023-12-20T01:34:17;9.5;;;4.8;;
51194;SDS011;37259;49.972;19.850;2023-12-20T01:35:17;9.5;;;4.8;;
51194;SDS011;37259;49.972;19.850;2023-12-20T01:36:17;9.5;;;4.8;;
51194;SDS011;37259;49.972;19.850;2023-12-20T01:37:17;9.5;;;4.8;;
51194;SDS011;37259;49.972;19.850;2023-12-20T01:38:17;9.5;;;4.8;;
51194;SDS011;37259;49.972;19.850;2023-12-20T01:39:17;9.5;;;4.8;;
51194;SDS011;37259;49.972;19.850;2023-12-20T01:40:17;9.5;;;4.8;;
51194;SDS011;37259;49.972;19.850;2023-12-20T01:41:17;9.5;;;4.8;;
51194;SDS011;37259;49.972;19.850;2023-12-20T01:42:18;9.5;;;4.8;;
51194;SDS011;37259;49.972;19.850;2023-12-20T01:43:18;9.5;;;4.8;;
51194;SDS011;37259;49.972;19.850;2023-12-20T01:44:17;9.5;;;4.8;;
51194;SDS011;37259;49.972;19.850;2023-12-20T01:45:17;9.5;;;4.8;;
51194;SDS011;37259;49.972;19.850;2023-12-20T01:46:17;12.1;;;7.5;;
51194;SDS011;37259;49.972;19.850;2023-12-20T01:47:17;12.1;;;7.5;;
51194;SDS011;37259;49.972;19.850;2023-12-20T01:48:17;12.1;;;7.5;;
51194;SDS011;37259;49.972;19.850;2023-12-20T01:49:17;12.1;;;7.5;;
51194;SDS011;37259;49.972;19.850;2023-12-20T01:50:17;12.1;;;7.5;;
51194;SDS011;37259;49.972;19.850;2023-12-20T01:51:17;12.1;;;7.5;;
51194;SDS011;37259;49.972;19.850;2023-12-20T01:52:17;12.1;;;7.5;;
51194;SDS011;37259;49.972;19.850;2023-12-20T01:53:18;12.1;;;7.5;;
51194;SDS011;37259;49.972;19.850;2023-12-20T01:54:17;12.1;;;7.5;;
51194;SDS011;37259;49.972;19.850;2023-12-20T01:55:17;12.1;;;7.5;;
51194;SDS011;37259;49.972;19.850;2023-12-20T01:56:17;12.1;;;7.5;;
51194;SDS011;37259;49.972;19.850;2023-12-20T01:57:17;12.1;;;7.5;;
51194;SDS011;37259;49.972;19.850;2023-12-20T01:58:17;12.1;;;7.5;;
51194;SDS011;37259;49.972;19.850;2023-12-20T01:59:17;12.1;;;7.5;;
51194;SDS011;37259;49.972;19.850;2023-12-20T02:00:17;12.1;;;7.5;;
51194;SDS011;37259;49.972;19.850;2023-12-20T02:01:17;12.1;;;7.5;;
51194;SDS011;37259;49.972;19.850;2023-12-20T02:02:17;12.1;;;7.5;;
51194;SDS011;37259;49.972;19.850;2023-12-20T02:03:17;12.1;;;7.5;;
51194;SDS011;37259;49.972;19.850;2023-12-20T02:04:17;12.1;;;7.5;;
51194;SDS011;37259;49.972;19.850;2023-12-20T02:05:17;12.1;;;7.5;;
51194;SDS011;37259;49.972;19.850;2023-12-20T02:06:17;12.1;;;7.5;;
51194;SDS011;37259;49.972;19.850;2023-12-20T02:07:17;12.1;;;7.5;;
51194;SDS011;37259;49.972;19.850;2023-12-20T02:08:17;12.1;;;7.5;;
51194;SDS011;37259;49.972;19.850;2023-12-20T02:09:17;12.1;;;7.5;;
51194;SDS011;37259;49.972;19.850;2023-12-20T02:10:17;12.1;;;7.5;;
51194;SDS011;37259;49.972;19.850;2023-12-20T02:11:17;12.1;;;7.5;;
51194;SDS011;37259;49.972;19.850;2023-12-20T02:12:17;12.1;;;7.5;;
51194;SDS011;37259;49.972;19.850;2023-12-20T02:13:17;12.1;;;7.5;;
51194;SDS011;37259;49.972;19.850;2023-12-20T02:14:17;12.1;;;7.5;;
51194;SDS011;37259;49.972;19.850;2023-12-20T02:15:17;12.1;;;7.5;;
51194;SDS011;37259;49.972;19.850;2023-12-20T02:16:17;7.8;;;3.9;;
51194;SDS011;37259;49.972;19.850;2023-12-20T02:17:17;7.8;;;3.9;;
51194;SDS011;37259;49.972;19.850;2023-12-20T02:18:17;7.8;;;3.9;;
51194;SDS011;37259;49.972;19.850;2023-12-20T02:19:17;7.8;;;3.9;;
51194;SDS011;37259;49.972;19.850;2023-12-20T02:20:17;7.8;;;3.9;;
51194;SDS011;37259;49.972;19.850;2023-12-20T02:21:17;7.8;;;3.9;;
51194;SDS011;37259;49.972;19.850;2023-12-20T02:22:17;7.8;;;3.9;;
51194;SDS011;37259;49.972;19.850;2023-12-20T02:23:17;7.8;;;3.9;;
51194;SDS011;37259;49.972;19.850;2023-12-20T02:24:17;7.8;;;3.9;;
51194;SDS011;37259;49.972;19.850;2023-12-20T02:25:17;7.8;;;3.9;;
51194;SDS011;37259;49.972;19.850;2023-12-20T02:26:17;7.8;;;3.9;;
51194;SDS011;37259;49.972;19.850;2023-12-20T02:27:17;7.8;;;3.9;;
51194;SDS011;37259;49.972;19.850;2023-12-20T02:28:17;7.8;;;3.9;;
51194;SDS011;37259;49.972;19.850;2023-12-20T02:29:17;7.8;;;3.9;;
51194;SDS011;37259;49.972;19.850;2023-12-20T02:30:17;7.8;;;3.9;;
51194;SDS011;37259;49.972;19.850;2023-12-20T02:31:20;7.8;;;3.9;;
51194;SDS011;37259;49.972;19.850;2023-12-20T02:32:17;7.8;;;3.9;;
51194;SDS011;37259;49.972;19.850;2023-12-20T02:33:17;7.8;;;3.9;;
51194;SDS011;37259;49.972;19.850;2023-12-20T02:34:17;7.8;;;3.9;;
51194;SDS011;37259;49.972;19.850;2023-12-20T02:35:17;7.8;;;3.9;;
51194;SDS011;37259;49.972;19.850;2023-12-20T02:36:17;7.8;;;3.9;;
51194;SDS011;37259;49.972;19.850;2023-12-20T02:37:17;7.8;;;3.9;;
51194;SDS011;37259;49.972;19.850;2023-12-20T02:38:17;7.8;;;3.9;;
51194;SDS011;37259;49.972;19.850;2023-12-20T02:39:17;7.8;;;3.9;;
51194;SDS011;37259;49.972;19.850;2023-12-20T02:40:17;7.8;;;3.9;;
51194;SDS011;37259;49.972;19.850;2023-12-20T02:41:17;7.8;;;3.9;;
51194;SDS011;37259;49.972;19.850;2023-12-20T02:42:17;7.8;;;3.9;;
51194;SDS011;37259;49.972;19.850;2023-12-20T02:43:17;7.8;;;3.9;;
51194;SDS011;37259;49.972;19.850;2023-12-20T02:44:17;7.8;;;3.9;;
51194;SDS011;37259;49.972;19.850;2023-12-20T02:45:17;7.8;;;3.9;;
51194;SDS011;37259;49.972;19.850;2023-12-20T02:46:17;5.7;;;2.8;;
51194;SDS011;37259;49.972;19.850;2023-12-20T02:47:17;5.7;;;2.8;;
51194;SDS011;37259;49.972;19.850;2023-12-20T02:48:17;5.7;;;2.8;;
51194;SDS011;37259;49.972;19.850;2023-12-20T02:49:17;5.7;;;2.8;;
51194;SDS011;37259;49.972;19.850;2023-12-20T02:50:17;5.7;;;2.8;;
51194;SDS011;37259;49.972;19.850;2023-12-20T02:51:17;5.7;;;2.8;;
51194;SDS011;37259;49.972;19.850;2023-12-20T02:52:17;5.7;;;2.8;;
51194;SDS011;37259;49.972;19.850;2023-12-20T02:53:17;5.7;;;2.8;;
51194;SDS011;37259;49.972;19.850;2023-12-20T02:54:17;5.7;;;2.8;;
51194;SDS011;37259;49.972;19.850;2023-12-20T02:55:17;5.7;;;2.8;;
51194;SDS011;37259;49.972;19.850;2023-12-20T02:56:17;5.7;;;2.8;;
51194;SDS011;37259;49.972;19.850;2023-12-20T02:57:17;5.7;;;2.8;;
51194;SDS011;37259;49.972;19.850;2023-12-20T02:58:17;5.7;;;2.8;;
51194;SDS011;37259;49.972;19.850;2023-12-20T02:59:17;5.7;;;2.8;;
51194;SDS011;37259;49.972;19.850;2023-12-20T03:00:17;5.7;;;2.8;;
51194;SDS011;37259;49.972;19.850;2023-12-20T03:01:17;5.7;;;2.8;;
51194;SDS011;37259;49.972;19.850;2023-12-20T03:02:17;5.7;;;2.8;;
51194;SDS011;37259;49.972;19.850;2023-12-20T03:03:17;5.7;;;2.8;;
51194;SDS011;37259;49.972;19.850;2023-12-20T03:04:17;5.7;;;2.8;;
51194;SDS011;37259;49.972;19.850;2023-12-20T03:05:17;5.7;;;2.8;;
51194;SDS011;37259;49.972;19.850;2023-12-20T03:06:17;5.7;;;2.8;;
51194;SDS011;37259;49.972;19.850;2023-12-20T03:07:17;5.7;;;2.8;;
51194;SDS011;37259;49.972;19.850;2023-12-20T03:08:17;5.7;;;2.8;;
51194;SDS011;37259;49.972;19.850;2023-12-20T03:09:17;5.7;;;2.8;;
51194;SDS011;37259;49.972;19.850;2023-12-20T03:10:18;5.7;;;2.8;;
51194;SDS011;37259;49.972;19.850;2023-12-20T03:11:17;5.7;;;2.8;;
51194;SDS011;37259;49.972;19.850;2023-12-20T03:12:17;5.7;;;2.8;;
51194;SDS011;37259;49.972;19.850;2023-12-20T03:13:17;5.7;;;2.8;;
51194;SDS011;37259;49.972;19.850;2023-12-20T03:14:17;5.7;;;2.8;;
51194;SDS011;37259;49.972;19.850;2023-12-20T03:15:17;5;;;2.6;;
51194;SDS011;37259;49.972;19.850;2023-12-20T03:16:17;5;;;2.6;;
51194;SDS011;37259;49.972;19.850;2023-12-20T03:17:17;5;;;2.6;;
51194;SDS011;37259;49.972;19.850;2023-12-20T03:18:17;5;;;2.6;;
51194;SDS011;37259;49.972;19.850;2023-12-20T03:19:18;5;;;2.6;;
51194;SDS011;37259;49.972;19.850;2023-12-20T03:20:17;5;;;2.6;;
51194;SDS011;37259;49.972;19.850;2023-12-20T03:21:17;5;;;2.6;;
51194;SDS011;37259;49.972;19.850;2023-12-20T03:22:17;5;;;2.6;;
51194;SDS011;37259;49.972;19.850;2023-12-20T03:23:17;5;;;2.6;;
51194;SDS011;37259;49.972;19.850;2023-12-20T03:24:17;5;;;2.6;;
51194;SDS011;37259;49.972;19.850;2023-12-20T03:25:17;5;;;2.6;;
51194;SDS011;37259;49.972;19.850;2023-12-20T03:26:17;5;;;2.6;;
51194;SDS011;37259;49.972;19.850;2023-12-20T03:27:17;5;;;2.6;;
51194;SDS011;37259;49.972;19.850;2023-12-20T03:28:17;5;;;2.6;;
51194;SDS011;37259;49.972;19.850;2023-12-20T03:29:17;5;;;2.6;;
51194;SDS011;37259;49.972;19.850;2023-12-20T03:30:18;5;;;2.6;;
51194;SDS011;37259;49.972;19.850;2023-12-20T03:31:17;5;;;2.6;;
51194;SDS011;37259;49.972;19.850;2023-12-20T03:32:17;5;;;2.6;;
51194;SDS011;37259;49.972;19.850;2023-12-20T03:33:17;5;;;2.6;;
51194;SDS011;37259;49.972;19.850;2023-12-20T03:34:17;5;;;2.6;;
51194;SDS011;37259;49.972;19.850;2023-12-20T03:35:17;5;;;2.6;;
51194;SDS011;37259;49.972;19.850;2023-12-20T03:36:17;5;;;2.6;;
51194;SDS011;37259;49.972;19.850;2023-12-20T03:37:17;5;;;2.6;;
51194;SDS011;37259;49.972;19.850;2023-12-20T03:38:17;5;;;2.6;;
51194;SDS011;37259;49.972;19.850;2023-12-20T03:39:17;5;;;2.6;;
51194;SDS011;37259;49.972;19.850;2023-12-20T03:40:17;5;;;2.6;;
51194;SDS011;37259;49.972;19.850;2023-12-20T03:41:17;5;;;2.6;;
51194;SDS011;37259;49.972;19.850;2023-12-20T03:42:17;5;;;2.6;;
51194;SDS011;37259;49.972;19.850;2023-12-20T03:43:17;5;;;2.6;;
51194;SDS011;37259;49.972;19.850;2023-12-20T03:44:17;5;;;2.6;;
51194;SDS011;37259;49.972;19.850;2023-12-20T03:45:17;6.4;;;2.9;;
51194;SDS011;37259;49.972;19.850;2023-12-20T03:46:17;6.4;;;2.9;;
51194;SDS011;37259;49.972;19.850;2023-12-20T03:47:17;6.4;;;2.9;;
51194;SDS011;37259;49.972;19.850;2023-12-20T03:48:17;6.4;;;2.9;;
51194;SDS011;37259;49.972;19.850;2023-12-20T03:49:17;6.4;;;2.9;;
51194;SDS011;37259;49.972;19.850;2023-12-20T03:50:17;6.4;;;2.9;;
51194;SDS011;37259;49.972;19.850;2023-12-20T03:51:17;6.4;;;2.9;;
51194;SDS011;37259;49.972;19.850;2023-12-20T03:52:17;6.4;;;2.9;;
51194;SDS011;37259;49.972;19.850;2023-12-20T03:53:17;6.4;;;2.9;;
51194;SDS011;37259;49.972;19.850;2023-12-20T03:54:17;6.4;;;2.9;;
51194;SDS011;37259;49.972;19.850;2023-12-20T03:55:17;6.4;;;2.9;;
51194;SDS011;37259;49.972;19.850;2023-12-20T03:56:17;6.4;;;2.9;;
51194;SDS011;37259;49.972;19.850;2023-12-20T03:57:17;6.4;;;2.9;;
51194;SDS011;37259;49.972;19.850;2023-12-20T03:58:17;6.4;;;2.9;;
51194;SDS011;37259;49.972;19.850;2023-12-20T03:59:17;6.4;;;2.9;;
51194;SDS011;37259;49.972;19.850;2023-12-20T04:00:17;6.4;;;2.9;;
51194;SDS011;37259;49.972;19.850;2023-12-20T04:01:17;6.4;;;2.9;;
51194;SDS011;37259;49.972;19.850;2023-12-20T04:02:17;6.4;;;2.9;;
51194;SDS011;37259;49.972;19.850;2023-12-20T04:03:17;6.4;;;2.9;;
51194;SDS011;37259;49.972;19.850;2023-12-20T04:04:17;6.4;;;2.9;;
51194;SDS011;37259;49.972;19.850;2023-12-20T04:05:17;6.4;;;2.9;;
51194;SDS011;37259;49.972;19.850;2023-12-20T04:06:17;6.4;;;2.9;;
51194;SDS011;37259;49.972;19.850;2023-12-20T04:07:17;6.4;;;2.9;;
51194;SDS011;37259;49.972;19.850;2023-12-20T04:08:17;6.4;;;2.9;;
51194;SDS011;37259;49.972;19.850;2023-12-20T04:09:17;6.4;;;2.9;;
51194;SDS011;37259;49.972;19.850;2023-12-20T04:10:17;6.4;;;2.9;;
51194;SDS011;37259;49.972;19.850;2023-12-20T04:11:17;6.4;;;2.9;;
51194;SDS011;37259;49.972;19.850;2023-12-20T04:12:17;6.4;;;2.9;;
51194;SDS011;37259;49.972;19.850;2023-12-20T04:13:17;6.4;;;2.9;;
51194;SDS011;37259;49.972;19.850;2023-12-20T04:14:17;6.4;;;2.9;;
51194;SDS011;37259;49.972;19.850;2023-12-20T04:15:17;9.1;;;4.6;;
51194;SDS011;37259;49.972;19.850;2023-12-20T04:16:17;9.1;;;4.6;;
51194;SDS011;37259;49.972;19.850;2023-12-20T04:17:17;9.1;;;4.6;;
51194;SDS011;37259;49.972;19.850;2023-12-20T04:18:17;9.1;;;4.6;;
51194;SDS011;37259;49.972;19.850;2023-12-20T04:19:17;9.1;;;4.6;;
51194;SDS011;37259;49.972;19.850;2023-12-20T04:20:17;9.1;;;4.6;;
51194;SDS011;37259;49.972;19.850;2023-12-20T04:21:17;9.1;;;4.6;;
51194;SDS011;37259;49.972;19.850;2023-12-20T04:22:17;9.1;;;4.6;;
51194;SDS011;37259;49.972;19.850;2023-12-20T04:23:17;9.1;;;4.6;;
51194;SDS011;37259;49.972;19.850;2023-12-20T04:24:17;9.1;;;4.6;;
51194;SDS011;37259;49.972;19.850;2023-12-20T04:25:17;9.1;;;4.6;;
51194;SDS011;37259;49.972;19.850;2023-12-20T04:26:17;9.1;;;4.6;;
51194;SDS011;37259;49.972;19.850;2023-12-20T04:27:17;9.1;;;4.6;;
51194;SDS011;37259;49.972;19.850;2023-12-20T04:28:17;9.1;;;4.6;;
51194;SDS011;37259;49.972;19.850;2023-12-20T04:29:17;9.1;;;4.6;;
51194;SDS011;37259;49.972;19.850;2023-12-20T04:30:17;9.1;;;4.6;;
51194;SDS011;37259;49.972;19.850;2023-12-20T04:31:17;9.1;;;4.6;;
51194;SDS011;37259;49.972;19.850;2023-12-20T04:32:17;9.1;;;4.6;;
51194;SDS011;37259;49.972;19.850;2023-12-20T04:33:17;9.1;;;4.6;;
51194;SDS011;37259;49.972;19.850;2023-12-20T04:34:17;9.1;;;4.6;;
51194;SDS011;37259;49.972;19.850;2023-12-20T04:35:17;9.1;;;4.6;;
51194;SDS011;37259;49.972;19.850;2023-12-20T04:36:18;9.1;;;4.6;;
51194;SDS011;37259;49.972;19.850;2023-12-20T04:37:17;9.1;;;4.6;;
51194;SDS011;37259;49.972;19.850;2023-12-20T04:38:17;9.1;;;4.6;;
51194;SDS011;37259;49.972;19.850;2023-12-20T04:39:17;9.1;;;4.6;;
51194;SDS011;37259;49.972;19.850;2023-12-20T04:40:17;9.1;;;4.6;;
51194;SDS011;37259;49.972;19.850;2023-12-20T04:41:17;9.1;;;4.6;;
51194;SDS011;37259;49.972;19.850;2023-12-20T04:42:17;9.1;;;4.6;;
51194;SDS011;37259;49.972;19.850;2023-12-20T04:43:17;9.1;;;4.6;;
51194;SDS011;37259;49.972;19.850;2023-12-20T04:44:17;9.1;;;4.6;;
51194;SDS011;37259;49.972;19.850;2023-12-20T04:45:17;7.1;;;3.8;;
51194;SDS011;37259;49.972;19.850;2023-12-20T04:46:17;7.1;;;3.8;;
51194;SDS011;37259;49.972;19.850;2023-12-20T04:47:17;7.1;;;3.8;;
51194;SDS011;37259;49.972;19.850;2023-12-20T04:48:17;7.1;;;3.8;;
51194;SDS011;37259;49.972;19.850;2023-12-20T04:49:17;7.1;;;3.8;;
51194;SDS011;37259;49.972;19.850;2023-12-20T04:50:17;7.1;;;3.8;;
51194;SDS011;37259;49.972;19.850;2023-12-20T04:51:17;7.1;;;3.8;;
51194;SDS011;37259;49.972;19.850;2023-12-20T04:52:17;7.1;;;3.8;;
51194;SDS011;37259;49.972;19.850;2023-12-20T04:53:17;7.1;;;3.8;;
51194;SDS011;37259;49.972;19.850;2023-12-20T04:54:17;7.1;;;3.8;;
51194;SDS011;37259;49.972;19.850;2023-12-20T04:55:17;7.1;;;3.8;;
51194;SDS011;37259;49.972;19.850;2023-12-20T04:56:17;7.1;;;3.8;;
51194;SDS011;37259;49.972;19.850;2023-12-20T04:57:17;7.1;;;3.8;;
51194;SDS011;37259;49.972;19.850;2023-12-20T04:58:17;7.1;;;3.8;;
51194;SDS011;37259;49.972;19.850;2023-12-20T04:59:17;7.1;;;3.8;;
51194;SDS011;37259;49.972;19.850;2023-12-20T05:00:17;7.1;;;3.8;;
51194;SDS011;37259;49.972;19.850;2023-12-20T05:01:17;7.1;;;3.8;;
51194;SDS011;37259;49.972;19.850;2023-12-20T05:02:17;7.1;;;3.8;;
51194;SDS011;37259;49.972;19.850;2023-12-20T05:03:17;7.1;;;3.8;;
51194;SDS011;37259;49.972;19.850;2023-12-20T05:04:17;7.1;;;3.8;;
51194;SDS011;37259;49.972;19.850;2023-12-20T05:05:17;7.1;;;3.8;;
51194;SDS011;37259;49.972;19.850;2023-12-20T05:06:17;7.1;;;3.8;;
51194;SDS011;37259;49.972;19.850;2023-12-20T05:07:17;7.1;;;3.8;;
51194;SDS011;37259;49.972;19.850;2023-12-20T05:08:17;7.1;;;3.8;;
51194;SDS011;37259;49.972;19.850;2023-12-20T05:09:17;7.1;;;3.8;;
51194;SDS011;37259;49.972;19.850;2023-12-20T05:10:17;7.1;;;3.8;;
51194;SDS011;37259;49.972;19.850;2023-12-20T05:11:17;7.1;;;3.8;;
51194;SDS011;37259;49.972;19.850;2023-12-20T05:12:17;7.1;;;3.8;;
51194;SDS011;37259;49.972;19.850;2023-12-20T05:13:17;7.1;;;3.8;;
51194;SDS011;37259;49.972;19.850;2023-12-20T05:14:17;7.1;;;3.8;;
51194;SDS011;37259;49.972;19.850;2023-12-20T05:15:17;7;;;4.2;;
51194;SDS011;37259;49.972;19.850;2023-12-20T05:16:17;7;;;4.2;;
51194;SDS011;37259;49.972;19.850;2023-12-20T05:17:17;7;;;4.2;;
51194;SDS011;37259;49.972;19.850;2023-12-20T05:18:17;7;;;4.2;;
51194;SDS011;37259;49.972;19.850;2023-12-20T05:19:17;7;;;4.2;;
51194;SDS011;37259;49.972;19.850;2023-12-20T05:20:17;7;;;4.2;;
51194;SDS011;37259;49.972;19.850;2023-12-20T05:21:17;7;;;4.2;;
51194;SDS011;37259;49.972;19.850;2023-12-20T05:22:17;7;;;4.2;;
51194;SDS011;37259;49.972;19.850;2023-12-20T05:23:17;7;;;4.2;;
51194;SDS011;37259;49.972;19.850;2023-12-20T05:24:17;7;;;4.2;;
51194;SDS011;37259;49.972;19.850;2023-12-20T05:25:17;7;;;4.2;;
51194;SDS011;37259;49.972;19.850;2023-12-20T05:26:17;7;;;4.2;;
51194;SDS011;37259;49.972;19.850;2023-12-20T05:27:17;7;;;4.2;;
51194;SDS011;37259;49.972;19.850;2023-12-20T05:28:17;7;;;4.2;;
51194;SDS011;37259;49.972;19.850;2023-12-20T05:29:17;7;;;4.2;;
51194;SDS011;37259;49.972;19.850;2023-12-20T05:30:17;7;;;4.2;;
51194;SDS011;37259;49.972;19.850;2023-12-20T05:31:17;7;;;4.2;;
51194;SDS011;37259;49.972;19.850;2023-12-20T05:32:17;7;;;4.2;;
51194;SDS011;37259;49.972;19.850;2023-12-20T05:33:17;7;;;4.2;;
51194;SDS011;37259;49.972;19.850;2023-12-20T05:34:17;7;;;4.2;;
51194;SDS011;37259;49.972;19.850;2023-12-20T05:35:17;7;;;4.2;;
51194;SDS011;37259;49.972;19.850;2023-12-20T05:36:17;7;;;4.2;;
51194;SDS011;37259;49.972;19.850;2023-12-20T05:37:17;7;;;4.2;;
51194;SDS011;37259;49.972;19.850;2023-12-20T05:38:17;7;;;4.2;;
51194;SDS011;37259;49.972;19.850;2023-12-20T05:39:17;7;;;4.2;;
51194;SDS011;37259;49.972;19.850;2023-12-20T05:40:17;7;;;4.2;;
51194;SDS011;37259;49.972;19.850;2023-12-20T05:41:17;7;;;4.2;;
51194;SDS011;37259;49.972;19.850;2023-12-20T05:42:17;7;;;4.2;;
51194;SDS011;37259;49.972;19.850;2023-12-20T05:43:17;7;;;4.2;;
51194;SDS011;37259;49.972;19.850;2023-12-20T05:44:17;7;;;4.2;;
51194;SDS011;37259;49.972;19.850;2023-12-20T05:45:17;7.4;;;3.8;;
51194;SDS011;37259;49.972;19.850;2023-12-20T05:46:17;7.4;;;3.8;;
51194;SDS011;37259;49.972;19.850;2023-12-20T05:47:17;7.4;;;3.8;;
51194;SDS011;37259;49.972;19.850;2023-12-20T05:48:17;7.4;;;3.8;;
51194;SDS011;37259;49.972;19.850;2023-12-20T05:49:17;7.4;;;3.8;;
51194;SDS011;37259;49.972;19.850;2023-12-20T05:50:17;7.4;;;3.8;;
51194;SDS011;37259;49.972;19.850;2023-12-20T05:51:17;7.4;;;3.8;;
51194;SDS011;37259;49.972;19.850;2023-12-20T05:52:17;7.4;;;3.8;;
51194;SDS011;37259;49.972;19.850;2023-12-20T05:53:17;7.4;;;3.8;;
51194;SDS011;37259;49.972;19.850;2023-12-20T05:54:17;7.4;;;3.8;;
51194;SDS011;37259;49.972;19.850;2023-12-20T05:55:17;7.4;;;3.8;;
51194;SDS011;37259;49.972;19.850;2023-12-20T05:56:17;7.4;;;3.8;;
51194;SDS011;37259;49.972;19.850;2023-12-20T05:57:17;7.4;;;3.8;;
51194;SDS011;37259;49.972;19.850;2023-12-20T05:58:17;7.4;;;3.8;;
51194;SDS011;37259;49.972;19.850;2023-12-20T05:59:17;7.4;;;3.8;;
51194;SDS011;37259;49.972;19.850;2023-12-20T06:00:17;7.4;;;3.8;;
51194;SDS011;37259;49.972;19.850;2023-12-20T06:01:17;7.4;;;3.8;;
51194;SDS011;37259;49.972;19.850;2023-12-20T06:02:17;7.4;;;3.8;;
51194;SDS011;37259;49.972;19.850;2023-12-20T06:03:17;7.4;;;3.8;;
51194;SDS011;37259;49.972;19.850;2023-12-20T06:04:17;7.4;;;3.8;;
51194;SDS011;37259;49.972;19.850;2023-12-20T06:05:17;7.4;;;3.8;;
51194;SDS011;37259;49.972;19.850;2023-12-20T06:06:17;7.4;;;3.8;;
51194;SDS011;37259;49.972;19.850;2023-12-20T06:07:17;7.4;;;3.8;;